createdAt,value
2022-08-30T00:01:29.021Z,97.12
2022-08-30T00:03:56.807Z,98.00
2022-08-30T00:06:33.469Z,100.00
2022-08-30T00:09:03.037Z,100.00
2022-08-30T00:11:30.417Z,100.00
2022-08-30T00:13:58.635Z,100.00
2022-08-30T00:16:28.078Z,100.00
2022-08-30T00:18:57.321Z,100.00
2022-08-30T00:21:27.425Z,100.00
2022-08-30T00:23:56.500Z,100.00
2022-08-30T00:26:25.758Z,100.00
2022-08-30T00:28:52.976Z,100.00
2022-08-30T00:31:23.220Z,100.00
2022-08-30T00:34:10.754Z,100.00
2022-08-30T00:36:38.777Z,100.00
2022-08-30T00:39:06.828Z,100.00
2022-08-30T00:41:34.757Z,100.00
2022-08-30T00:44:08.675Z,100.00
2022-08-30T00:46:35.714Z,100.00
2022-08-30T00:49:22.190Z,100.00
2022-08-30T00:51:50.603Z,100.00
2022-08-30T00:54:22.626Z,100.00
2022-08-30T00:57:00.086Z,100.00
2022-08-30T00:59:28.035Z,100.00
2022-08-30T01:02:03.658Z,100.00
2022-08-30T01:04:33.802Z,100.00
2022-08-30T01:07:01.153Z,100.00
2022-08-30T01:09:30.342Z,100.00
2022-08-30T01:11:58.526Z,100.00
2022-08-30T01:14:26.806Z,100.00
2022-08-30T01:17:07.100Z,100.00
2022-08-30T01:19:54.366Z,100.00
2022-08-30T01:22:45.106Z,100.00
2022-08-30T01:25:23.389Z,100.00
2022-08-30T01:28:11.206Z,100.00
2022-08-30T01:30:43.352Z,100.00
2022-08-30T01:33:11.778Z,100.00
2022-08-30T01:36:03.888Z,100.00
2022-08-30T01:38:57.135Z,100.00
2022-08-30T01:41:48.519Z,100.00
2022-08-30T01:44:16.817Z,100.00
2022-08-30T01:46:48.014Z,100.00
2022-08-30T01:49:27.325Z,100.00
2022-08-30T01:52:01.043Z,100.00
2022-08-30T01:54:38.645Z,100.00
2022-08-30T01:57:08.897Z,100.00
2022-08-30T01:59:53.905Z,100.00
2022-08-30T02:02:49.470Z,100.00
2022-08-30T02:05:23.524Z,100.00
2022-08-30T02:08:05.472Z,100.00
2022-08-30T02:10:38.737Z,100.00
2022-08-30T02:13:06.787Z,100.00
2022-08-30T02:15:41.738Z,100.00
2022-08-30T02:18:23.476Z,100.00
2022-08-30T02:20:56.594Z,100.00
2022-08-30T02:23:45.249Z,100.00
2022-08-30T02:26:23.534Z,100.00
2022-08-30T02:28:51.425Z,100.00
2022-08-30T02:31:27.686Z,100.00
2022-08-30T02:33:55.456Z,100.00
2022-08-30T02:36:24.845Z,100.00
2022-08-30T02:38:57.165Z,100.00
2022-08-30T02:41:42.194Z,100.00
2022-08-30T02:44:26.586Z,100.00
2022-08-30T02:47:17.232Z,100.00
2022-08-30T02:49:49.472Z,100.00
2022-08-30T02:52:20.060Z,100.00
2022-08-30T02:55:00.834Z,100.00
2022-08-30T02:57:36.458Z,100.00
2022-08-30T03:00:08.733Z,100.00
2022-08-30T03:02:40.865Z,100.00
2022-08-30T03:05:13.302Z,100.00
2022-08-30T03:07:52.008Z,100.00
2022-08-30T03:10:50.583Z,100.00
2022-08-30T03:13:39.287Z,100.00
2022-08-30T03:16:16.462Z,100.00
2022-08-30T03:18:44.564Z,100.00
2022-08-30T03:21:18.526Z,100.00
2022-08-30T03:23:46.963Z,100.00
2022-08-30T03:26:16.223Z,100.00
2022-08-30T03:28:44.031Z,100.00
2022-08-30T03:31:13.150Z,100.00
2022-08-30T03:33:47.859Z,100.00
2022-08-30T03:36:23.057Z,100.00
2022-08-30T03:38:57.028Z,100.00
2022-08-30T03:41:25.721Z,100.00
2022-08-30T03:43:53.809Z,100.00
2022-08-30T03:46:31.131Z,100.00
2022-08-30T03:48:59.719Z,100.00
2022-08-30T03:51:27.809Z,100.00
2022-08-30T03:53:54.776Z,100.00
2022-08-30T03:56:21.904Z,100.00
2022-08-30T03:58:49.182Z,100.00
2022-08-30T04:01:16.309Z,100.00
2022-08-30T04:03:44.363Z,100.00
2022-08-30T04:06:18.799Z,100.00
2022-08-30T04:08:48.247Z,100.00
2022-08-30T04:11:16.706Z,100.00
2022-08-30T04:13:44.586Z,100.00
2022-08-30T04:16:13.313Z,100.00
2022-08-30T04:18:40.613Z,100.00
2022-08-30T04:21:09.519Z,100.00
2022-08-30T04:23:39.613Z,100.00
2022-08-30T04:26:06.644Z,100.00
2022-08-30T04:28:36.905Z,100.00
2022-08-30T04:31:16.037Z,100.00
2022-08-30T04:33:50.039Z,100.00
2022-08-30T04:36:18.239Z,100.00
2022-08-30T04:39:09.666Z,100.00
2022-08-30T04:41:40.371Z,100.00
2022-08-30T04:44:08.196Z,100.00
2022-08-30T04:46:44.762Z,100.00
2022-08-30T04:49:12.158Z,100.00
2022-08-30T04:51:45.324Z,100.00
2022-08-30T04:54:18.465Z,100.00
2022-08-30T04:56:47.903Z,100.00
2022-08-30T04:59:17.995Z,100.00
2022-08-30T05:01:46.250Z,100.00
2022-08-30T05:04:19.522Z,100.00
2022-08-30T05:06:47.651Z,100.00
2022-08-30T05:09:15.906Z,100.00
2022-08-30T05:11:49.207Z,100.00
2022-08-30T05:14:17.412Z,100.00
2022-08-30T05:16:44.478Z,100.00
2022-08-30T05:19:23.939Z,100.00
2022-08-30T05:21:55.169Z,100.00
2022-08-30T05:24:22.208Z,100.00
2022-08-30T05:26:49.390Z,100.00
2022-08-30T05:29:18.012Z,100.00
2022-08-30T05:31:45.226Z,100.00
2022-08-30T05:34:14.813Z,100.00
2022-08-30T05:36:42.083Z,100.00
2022-08-30T05:39:11.035Z,100.00
2022-08-30T05:41:40.760Z,100.00
2022-08-30T05:44:14.040Z,100.00
2022-08-30T05:46:46.636Z,100.00
2022-08-30T05:49:16.218Z,100.00
2022-08-30T05:51:45.492Z,100.00
2022-08-30T05:54:14.724Z,100.00
2022-08-30T05:56:46.142Z,100.00
2022-08-30T05:59:15.806Z,100.00
2022-08-30T06:02:07.698Z,100.00
2022-08-30T06:04:36.815Z,100.00
2022-08-30T06:07:06.574Z,100.00
2022-08-30T06:09:37.947Z,100.00
2022-08-30T06:12:06.218Z,100.00
2022-08-30T06:14:33.395Z,100.00
2022-08-30T06:17:01.604Z,100.00
2022-08-30T06:19:34.644Z,100.00
2022-08-30T06:22:01.704Z,100.00
2022-08-30T06:24:53.616Z,100.00
2022-08-30T06:27:18.802Z,100.00
2022-08-30T06:29:45.885Z,100.00
2022-08-30T06:32:15.022Z,100.00
2022-08-30T06:34:43.225Z,100.00
2022-08-30T06:37:11.360Z,100.00
2022-08-30T06:39:39.425Z,100.00
2022-08-30T06:42:06.795Z,99.85
2022-08-30T06:44:35.844Z,99.16
2022-08-30T06:47:09.787Z,98.84
2022-08-30T06:49:44.715Z,98.51
2022-08-30T06:52:12.363Z,98.18
2022-08-30T06:54:46.396Z,96.62
2022-08-30T06:57:17.204Z,95.41
2022-08-30T06:59:46.205Z,95.22
2022-08-30T07:02:17.606Z,95.68
2022-08-30T07:04:48.948Z,95.63
2022-08-30T07:07:16.883Z,95.90
2022-08-30T07:09:45.373Z,96.23
2022-08-30T07:12:18.778Z,95.01
2022-08-30T07:14:53.571Z,94.25
2022-08-30T07:17:40.288Z,93.55
2022-08-30T07:20:19.016Z,93.59
2022-08-30T07:22:47.895Z,91.48
2022-08-30T07:25:17.336Z,91.43
2022-08-30T07:27:48.309Z,90.40
2022-08-30T07:30:15.321Z,90.94
2022-08-30T07:32:42.411Z,91.83
2022-08-30T07:35:09.588Z,92.01
2022-08-30T07:37:36.840Z,90.48
2022-08-30T07:40:04.937Z,89.59
2022-08-30T07:42:32.024Z,88.33
2022-08-30T07:45:01.113Z,86.91
2022-08-30T07:47:28.186Z,85.68
2022-08-30T07:49:55.120Z,84.85
2022-08-30T07:52:27.953Z,87.09
2022-08-30T07:55:00.177Z,86.09
2022-08-30T07:57:33.802Z,85.72
2022-08-30T08:00:01.902Z,85.78
2022-08-30T08:02:42.172Z,83.64
2022-08-30T08:05:12.800Z,82.76
2022-08-30T08:07:43.679Z,79.39
2022-08-30T08:10:13.887Z,78.87
2022-08-30T08:12:41.857Z,79.30
2022-08-30T08:15:09.303Z,79.42
2022-08-30T08:17:36.376Z,79.52
2022-08-30T08:20:04.815Z,78.61
2022-08-30T08:22:32.045Z,80.81
2022-08-30T08:25:01.510Z,81.82
2022-08-30T08:27:29.343Z,82.03
2022-08-30T08:29:56.360Z,82.54
2022-08-30T08:32:23.531Z,81.75
2022-08-30T08:34:50.640Z,80.72
2022-08-30T08:37:20.815Z,80.58
2022-08-30T08:39:48.931Z,78.13
2022-08-30T08:42:32.165Z,76.06
2022-08-30T08:45:17.880Z,76.76
2022-08-30T08:47:54.176Z,75.08
2022-08-30T08:50:25.748Z,74.48
2022-08-30T08:53:45.613Z,73.49
2022-08-30T08:56:23.147Z,74.71
2022-08-30T08:58:58.389Z,71.39
2022-08-30T09:01:30.531Z,72.31
2022-08-30T09:04:13.467Z,72.97
2022-08-30T09:06:59.004Z,72.54
2022-08-30T09:09:36.445Z,70.76
2022-08-30T09:12:07.862Z,72.10
2022-08-30T09:14:59.300Z,70.15
2022-08-30T09:17:49.031Z,69.14
2022-08-30T09:20:41.666Z,67.46
2022-08-30T09:23:30.205Z,68.06
2022-08-30T09:26:09.473Z,70.36
2022-08-30T09:28:49.612Z,68.21
2022-08-30T09:31:29.552Z,66.75
2022-08-30T09:34:16.767Z,66.61
2022-08-30T09:36:52.425Z,65.57
2022-08-30T09:39:27.569Z,67.19
2022-08-30T09:41:55.478Z,67.54
2022-08-30T09:44:39.323Z,68.22
2022-08-30T09:47:24.307Z,68.84
2022-08-30T09:50:20.122Z,68.40
2022-08-30T09:53:19.898Z,68.11
2022-08-30T09:55:56.509Z,65.77
2022-08-30T09:58:49.057Z,63.35
2022-08-30T10:01:32.026Z,63.19
2022-08-30T10:04:18.868Z,64.53
2022-08-30T10:07:02.609Z,63.71
2022-08-30T10:09:52.534Z,61.80
2022-08-30T10:12:50.258Z,61.68
2022-08-30T10:15:41.254Z,60.43
2022-08-30T10:18:16.921Z,59.30
2022-08-30T10:21:06.715Z,57.02
2022-08-30T10:23:46.391Z,57.11
2022-08-30T10:26:22.302Z,56.58
2022-08-30T10:29:10.780Z,57.28
2022-08-30T10:31:53.598Z,57.11
2022-08-30T10:34:32.759Z,58.05
2022-08-30T10:37:25.402Z,58.44
2022-08-30T10:40:22.608Z,57.89
2022-08-30T10:42:56.703Z,55.83
2022-08-30T10:45:33.410Z,54.54
2022-08-30T10:48:05.489Z,52.45
2022-08-30T10:50:49.026Z,51.78
2022-08-30T10:53:41.104Z,51.98
2022-08-30T10:56:23.726Z,53.32
2022-08-30T10:58:54.803Z,54.43
2022-08-30T11:01:50.770Z,53.37
2022-08-30T11:04:54.524Z,52.19
2022-08-30T11:08:03.212Z,50.93
2022-08-30T11:10:54.146Z,50.16
2022-08-30T11:13:26.369Z,47.75
2022-08-30T11:16:15.471Z,47.76
2022-08-30T11:18:54.353Z,45.68
2022-08-30T11:21:40.129Z,44.61
2022-08-30T11:24:11.455Z,43.45
2022-08-30T11:26:59.950Z,43.81
2022-08-30T11:29:38.159Z,45.03
2022-08-30T11:32:25.865Z,42.58
2022-08-30T11:35:32.406Z,40.81
2022-08-30T11:38:32.684Z,40.48
2022-08-30T11:41:14.324Z,41.50
2022-08-30T11:43:47.469Z,42.05
2022-08-30T11:46:20.108Z,42.91
2022-08-30T11:49:17.168Z,42.62
2022-08-30T11:55:01.878Z,38.88
2022-08-30T11:58:22.142Z,38.89
2022-08-30T12:01:40.697Z,35.89
2022-08-30T12:04:44.172Z,35.72
2022-08-30T12:07:12.895Z,34.42
2022-08-30T12:09:46.455Z,34.87
2022-08-30T12:12:27.009Z,35.33
2022-08-30T12:14:57.776Z,33.74
2022-08-30T12:18:16.069Z,36.39
2022-08-30T12:20:49.319Z,36.40
2022-08-30T12:23:44.780Z,38.38
2022-08-30T12:26:25.690Z,40.35
2022-08-30T12:29:18.465Z,42.87
2022-08-30T12:31:56.385Z,44.14
2022-08-30T12:34:52.139Z,45.74
2022-08-30T12:37:42.367Z,46.15
2022-08-30T12:40:21.359Z,46.50
2022-08-30T12:42:58.761Z,46.88
2022-08-30T12:45:31.796Z,46.61
2022-08-30T12:48:11.980Z,44.85
2022-08-30T12:50:54.039Z,43.75
2022-08-30T12:53:37.878Z,41.34
2022-08-30T12:56:11.975Z,40.16
2022-08-30T12:58:41.825Z,37.65
2022-08-30T13:01:33.979Z,39.51
2022-08-30T13:04:09.501Z,37.99
2022-08-30T13:07:02.806Z,36.91
2022-08-30T13:09:39.108Z,36.37
2022-08-30T13:12:20.563Z,34.46
2022-08-30T13:14:50.488Z,35.63
2022-08-30T13:17:24.193Z,35.19
2022-08-30T13:20:16.232Z,34.30
2022-08-30T13:23:12.300Z,34.57
2022-08-30T13:25:47.489Z,33.04
2022-08-30T13:28:15.834Z,33.13
2022-08-30T13:30:42.967Z,32.87
2022-08-30T13:33:14.370Z,32.97
2022-08-30T13:35:43.189Z,32.41
2022-08-30T13:38:11.207Z,32.62
2022-08-30T13:40:38.550Z,34.53
2022-08-30T13:43:16.679Z,34.92
2022-08-30T13:45:46.052Z,34.92
2022-08-30T13:48:17.398Z,34.84
2022-08-30T13:50:46.418Z,36.00
2022-08-30T13:53:13.643Z,36.82
2022-08-30T13:56:06.171Z,38.35
2022-08-30T13:58:47.778Z,38.90
2022-08-30T14:01:15.017Z,40.32
2022-08-30T14:06:34.924Z,38.39
2022-08-30T14:09:24.621Z,37.60
2022-08-30T14:11:59.397Z,36.82
2022-08-30T14:14:42.615Z,36.87
2022-08-30T14:17:12.538Z,38.56
2022-08-30T14:19:46.358Z,38.43
2022-08-30T14:44:15.189Z,38.93
2022-08-30T14:46:47.777Z,38.85
2022-08-30T14:49:28.927Z,39.27
2022-08-30T14:52:08.432Z,38.66
2022-08-30T14:54:36.703Z,38.55
2022-08-30T14:57:04.033Z,38.34
2022-08-30T14:59:59.403Z,39.11
2022-08-30T15:02:27.240Z,40.33
2022-08-30T15:04:55.333Z,41.00
2022-08-30T15:07:24.964Z,41.68
2022-08-30T15:09:54.517Z,42.26
2022-08-30T15:12:22.684Z,41.96
2022-08-30T15:14:51.732Z,41.26
2022-08-30T15:17:21.403Z,41.27
2022-08-30T15:19:48.579Z,42.12
2022-08-30T15:22:16.200Z,42.19
2022-08-30T15:24:43.800Z,41.39
2022-08-30T15:27:19.149Z,39.40
2022-08-30T15:29:46.219Z,39.77
2022-08-30T15:32:24.237Z,39.55
2022-08-30T15:34:57.745Z,39.68
2022-08-30T15:37:26.431Z,38.71
2022-08-30T15:39:53.871Z,38.67
2022-08-30T15:42:20.881Z,36.58
2022-08-30T15:44:55.697Z,36.99
2022-08-30T15:47:33.181Z,36.76
2022-08-30T15:50:04.724Z,35.94
2022-08-30T15:52:34.185Z,35.89
2022-08-30T15:55:06.126Z,35.91
2022-08-30T15:57:36.350Z,36.37
2022-08-30T16:00:08.601Z,35.93
2022-08-30T16:02:41.523Z,35.66
2022-08-30T16:05:15.564Z,35.79
2022-08-30T16:08:10.321Z,34.46
2022-08-30T16:10:43.247Z,34.68
2022-08-30T16:13:10.550Z,35.15
2022-08-30T16:15:40.770Z,35.41
2022-08-30T16:18:08.858Z,35.86
2022-08-30T16:20:37.187Z,35.51
2022-08-30T16:23:15.374Z,35.69
2022-08-30T16:25:46.741Z,36.56
2022-08-30T16:28:13.850Z,36.96
2022-08-30T16:30:59.510Z,37.33
2022-08-30T16:33:29.875Z,38.06
2022-08-30T16:35:59.145Z,37.70
2022-08-30T16:38:28.935Z,38.44
2022-08-30T16:41:04.195Z,39.06
2022-08-30T16:43:34.756Z,38.90
2022-08-30T16:46:04.557Z,38.50
2022-08-30T16:48:33.955Z,39.32
2022-08-30T16:51:08.786Z,39.69
2022-08-30T16:53:39.363Z,40.45
2022-08-30T16:56:11.688Z,40.38
2022-08-30T16:58:39.956Z,41.09
2022-08-30T17:01:13.876Z,41.89
2022-08-30T17:03:43.172Z,42.63
2022-08-30T17:06:10.418Z,43.77
2022-08-30T17:08:39.430Z,44.27
2022-08-30T17:11:09.533Z,45.33
2022-08-30T17:13:39.765Z,46.00
2022-08-30T17:16:11.899Z,46.79
2022-08-30T17:18:40.246Z,47.85
2022-08-30T17:21:09.423Z,48.62
2022-08-30T17:23:37.680Z,49.57
2022-08-30T17:26:06.653Z,50.34
2022-08-30T17:28:35.345Z,51.19
2022-08-30T17:31:03.732Z,52.03
2022-08-30T17:33:31.104Z,52.67
2022-08-30T17:36:00.188Z,53.12
2022-08-30T17:38:27.329Z,53.47
2022-08-30T17:40:54.756Z,54.27
2022-08-30T17:43:22.192Z,55.02
2022-08-30T17:45:49.772Z,55.55
2022-08-30T17:48:17.020Z,56.75
2022-08-30T17:50:45.358Z,58.20
2022-08-30T17:53:12.387Z,60.28
2022-08-30T17:55:43.594Z,61.17
2022-08-30T17:58:11.841Z,63.60
2022-08-30T18:00:40.053Z,66.66
2022-08-30T18:03:13.091Z,67.33
2022-08-30T18:05:46.811Z,69.10
2022-08-30T18:08:15.245Z,69.81
2022-08-30T18:10:51.528Z,70.43
2022-08-30T18:13:19.422Z,70.61
2022-08-30T18:15:47.002Z,70.05
2022-08-30T18:18:20.044Z,66.38
2022-08-30T18:20:48.566Z,66.60
2022-08-30T18:23:18.355Z,66.75
2022-08-30T18:25:57.715Z,67.24
2022-08-30T18:28:25.043Z,68.07
2022-08-30T18:31:00.905Z,69.84
2022-08-30T18:33:29.396Z,71.04
2022-08-30T18:35:57.071Z,69.24
2022-08-30T18:38:25.072Z,69.82
2022-08-30T18:40:57.663Z,70.85
2022-08-30T18:43:31.067Z,71.84
2022-08-30T18:46:05.083Z,72.22
2022-08-30T18:48:33.076Z,72.54
2022-08-30T18:51:04.498Z,73.56
2022-08-30T18:53:32.662Z,74.36
2022-08-30T18:56:03.423Z,74.38
2022-08-30T18:58:37.442Z,73.80
2022-08-30T19:01:05.152Z,74.31
2022-08-30T19:03:34.816Z,75.20
2022-08-30T19:06:06.836Z,75.02
2022-08-30T19:08:37.166Z,74.80
2022-08-30T19:11:09.771Z,75.53
2022-08-30T19:13:40.771Z,76.08
2022-08-30T19:16:12.066Z,77.19
2022-08-30T19:18:41.400Z,77.23
2022-08-30T19:21:13.604Z,77.69
2022-08-30T19:23:53.021Z,77.74
2022-08-30T19:26:23.450Z,77.57
2022-08-30T19:28:54.967Z,77.10
2022-08-30T19:31:28.004Z,76.59
2022-08-30T19:33:56.412Z,76.16
2022-08-30T19:36:23.758Z,76.44
2022-08-30T19:38:52.873Z,76.45
2022-08-30T19:41:25.334Z,76.46
2022-08-30T19:43:52.735Z,78.13
2022-08-30T19:46:21.861Z,78.53
2022-08-30T19:48:53.216Z,78.77
2022-08-30T19:51:20.444Z,78.74
2022-08-30T19:53:50.477Z,78.90
2022-08-30T19:56:36.303Z,79.41
2022-08-30T19:59:09.487Z,80.33
2022-08-30T20:01:38.130Z,80.02
2022-08-30T20:04:17.644Z,79.43
2022-08-30T20:06:45.665Z,79.45
2022-08-30T20:09:13.677Z,78.67
2022-08-30T20:11:42.903Z,78.98
2022-08-30T20:14:14.151Z,78.66
2022-08-30T20:16:51.745Z,79.13
2022-08-30T20:19:21.824Z,78.78
2022-08-30T20:22:07.168Z,79.59
2022-08-30T20:24:39.324Z,80.95
2022-08-30T20:27:14.510Z,81.54
2022-08-30T20:29:42.242Z,81.85
2022-08-30T20:32:09.350Z,82.24
2022-08-30T20:34:44.766Z,82.98
2022-08-30T20:37:12.390Z,82.35
2022-08-30T20:39:40.639Z,82.40
2022-08-30T20:42:14.725Z,83.44
2022-08-30T20:44:41.788Z,83.01
2022-08-30T20:47:08.891Z,83.46
2022-08-30T20:49:37.586Z,83.97
2022-08-30T20:52:05.120Z,84.50
2022-08-30T20:54:32.374Z,84.12
2022-08-30T20:56:59.482Z,84.15
2022-08-30T20:59:28.705Z,83.99
2022-08-30T21:01:59.251Z,83.13
2022-08-30T21:04:29.145Z,83.36
2022-08-30T21:07:02.409Z,83.75
2022-08-30T21:09:32.641Z,83.11
2022-08-30T21:12:23.415Z,82.77
2022-08-30T21:14:54.576Z,82.49
2022-08-30T21:17:23.640Z,82.71
2022-08-30T21:19:58.422Z,83.36
2022-08-30T21:23:01.800Z,83.56
2022-08-30T21:25:44.794Z,84.54
2022-08-30T21:28:30.666Z,84.87
2022-08-30T21:31:18.459Z,84.89
2022-08-30T21:33:48.345Z,84.85
2022-08-30T21:36:38.409Z,85.50
2022-08-30T21:39:07.371Z,86.17
2022-08-30T21:41:39.915Z,85.98
2022-08-30T21:44:11.585Z,84.79
2022-08-30T21:46:42.256Z,86.26
2022-08-30T21:49:12.287Z,86.74
2022-08-30T21:51:44.827Z,87.85
2022-08-30T21:54:15.935Z,88.76
2022-08-30T21:56:45.354Z,89.94
2022-08-30T21:59:14.012Z,89.60
2022-08-30T22:01:46.112Z,89.94
2022-08-30T22:04:15.119Z,90.29
2022-08-30T22:06:48.313Z,90.59
2022-08-30T22:09:19.837Z,90.66
2022-08-30T22:11:47.557Z,90.08
2022-08-30T22:14:28.330Z,90.27
2022-08-30T22:16:56.656Z,90.30
2022-08-30T22:19:25.238Z,90.78
2022-08-30T22:22:00.607Z,90.68
2022-08-30T22:25:03.253Z,89.95
2022-08-30T22:27:32.378Z,89.29
2022-08-30T22:30:00.669Z,88.91
2022-08-30T22:32:38.489Z,89.19
2022-08-30T22:35:08.237Z,89.27
2022-08-30T22:37:40.545Z,88.95
2022-08-30T22:40:17.081Z,89.63
2022-08-30T22:42:48.655Z,90.06
2022-08-30T22:45:21.812Z,90.57
2022-08-30T22:47:48.924Z,91.25
2022-08-30T22:50:16.199Z,93.22
2022-08-30T22:52:59.486Z,94.84
2022-08-30T22:55:28.666Z,95.32
2022-08-30T22:58:03.770Z,94.92
2022-08-30T23:00:31.901Z,94.65
2022-08-30T23:03:08.097Z,94.50
2022-08-30T23:05:36.806Z,94.42
2022-08-30T23:08:05.658Z,94.43
2022-08-30T23:10:33.446Z,93.59
2022-08-30T23:13:16.004Z,92.26
2022-08-30T23:15:46.106Z,91.49
2022-08-30T23:18:15.308Z,90.97
2022-08-30T23:20:43.499Z,89.96
2022-08-30T23:23:11.863Z,89.43
2022-08-30T23:25:58.262Z,89.58
2022-08-30T23:28:46.105Z,89.29
2022-08-30T23:31:37.019Z,89.37
2022-08-30T23:34:49.316Z,89.94
2022-08-30T23:37:34.874Z,90.31
2022-08-30T23:40:21.528Z,90.77
2022-08-30T23:43:08.871Z,90.88
2022-08-30T23:45:55.684Z,91.13
2022-08-30T23:48:41.192Z,90.61
2022-08-30T23:51:39.167Z,90.31
2022-08-30T23:54:31.889Z,90.62
2022-08-30T23:57:40.126Z,89.45
